56NK weather

Buffalo General Hospital Heliport
Buffalo, New York, United States

Public forecast

Using degrees Fahrenheit for public forecast. Weather courtesy of forecast.io.

METAR (pilot weather report)

Closest report is Buffalo Niagara International Airport, 6.4 nm (11.8 km) ENE. Retrieved 2019/06/15 23:32 UTC (22 minutes ago):

KBUF 152332Z 24013G19KT 1 3/4SM +RA BR OVC005 17/16 A2987

TAF (pilot weather forecast)

Closest forecast is Buffalo Niagara International Airport, 6.4 nm (11.8 km) ENE. Retrieved 2019/06/15 18:42 UTC (5 hours ago):

TAF KBUF 151738Z 1518/1618 23022G32KT P6SM BKN080 FM152000 23018G28KT P6SM VCSH OVC040 FM152300 23012KT 4SM SHRA BR OVC015 FM160400 VRB05KT 3SM -SHRA BR OVC007 FM160900 06006KT 5SM BR OVC007 FM161600 05008KT P6SM BKN015